Sint-Genesius-Rode, Belgium

3:20 AM CET on December 20, 2014 (GMT +0100)
Brussels south | Change Station
CLOSE
Current Station
Personal Weather Station
Location: Sint-Genesius-Rode, VLAAMS BRABANT
Elevation: 305 ft
Nearby Weather Stations

Elev 305 ft 50.75 °N, 4.36 °E | Updated 5 seconds ago

Clear
Clear
39.2 °F
Feels Like 37 °F
N
3.1
Wind Variable Wind from WSW
Gusts 6.0 mph

Today
High -- | Low -- °F
--% Chance of Precip.
Yesterday
High -- | Low -- °F
Precip. -- in
8:41 AM 4:38 PM
Waning Crescent, 5% visible
Pressure 30.21 in
Visibility -9999.0 miles
Clouds
Windchill 37 °F
Dew Point 38 °F
Humidity 96%
Rainfall 0.00 in
Snow Depth Not available.
UV Not available.
Pollen Not available.
Air Quality Not available.
Flu Activity Not available.
METAR EBBR 200150Z 25012KT CAVOK 05/02 Q1023 NOSIG

More Conditions Fewer Conditions

Pressure 30.21 in
Visibility -9999.0 miles
Clouds
Windchill 37 °F
Dew Point 38 °F
Humidity 96%
Rainfall 0.00 in
Snow Depth Not available.
UV Not available.
Pollen Not available.
Air Quality Not available.
Flu Activity Not available.
METAR EBBR 200150Z 25012KT CAVOK 05/02 Q1023 NOSIG

More Conditions Fewer Conditions

10-Day Weather Forecast

Almanac

Astronomy

Dec. 20, 2014 Rise Set
Actual Time
Civil Twilight
Nautical Twilight
Astronomical Twilight
Moon
Length of Visible Light
Length of Day
Tomorrow will be .
, % of the Moon is Illuminated

Today's Extremes

Country Highs Country Lows

Community

WunderPhotos

Upload Photos

1,779,113 photos uploaded!

WunderBlogs® & News

Nearby

Air Quality

  Air Quality AQ Index Pollutant
Not available.

Snow Depth

Station Depth Elevation

Earthquake Activity

City Distance Mag. Time & Date
Minimum magnitude displayed is 2.5.

Coastal Water Temperatures

Place Temperature

Nearby Weather Stations